Terminal Aerodrome Forecast
Issued by NWS Wakefield, VA

Home | Current Version | Previous Version | Text Only | Print | Product List | Glossary On
Versions: 1 2 3 4 5 6 7 8 9 10 11 12 13 14 15 16 17 18 19 20 21 22 23 24 25 26 27 28 29
000
FTUS41 KAKQ 051735
TAFORF
TAF
KORF 051735Z 0518/0618 03015G23KT P6SM OVC010
     FM060000 04012KT 5SM -RA BR OVC007
     FM061000 01007KT 4SM -RA BR OVC005=

USA.gov is the U.S. government's official web portal to all federal, state and local government web resources and services.